Time;durP1;ratioP1;P1;durP2;ratioP2;P2;SDS_P1;SDS_P2;PMS_P1;PMS_P2;Temp;Humidity;BMP_temperature;BMP_pressure;BME280_temperature;BME280_humidity;BME280_pressure;Samples;Min_cycle;Max_cycle;Signal;HPM_P1;HPM_P2
2022/10/18 00:01:50;;;;;;;16.90;6.10;;;16.60;99.90;;;;;;5031724;28;20261;-72
2022/10/18 00:04:16;;;;;;;19.13;7.27;;;16.60;99.90;;;;;;5028182;28;20115;-72
2022/10/18 00:06:41;;;;;;;11.93;6.40;;;16.60;99.90;;;;;;5012123;28;20277;-73
2022/10/18 00:09:07;;;;;;;11.63;5.27;;;16.50;99.90;;;;;;5013170;28;20284;-73
2022/10/18 00:11:32;;;;;;;11.65;5.70;;;16.60;99.90;;;;;;5012168;28;20044;-73
2022/10/18 00:13:58;;;;;;;11.38;5.95;;;16.50;99.90;;;;;;5028560;28;20121;-73
2022/10/18 00:16:24;;;;;;;10.93;4.78;;;16.50;99.90;;;;;;5016849;28;20030;-72
2022/10/18 00:18:50;;;;;;;10.25;5.22;;;16.60;99.90;;;;;;5020725;28;20033;-72
2022/10/18 00:21:18;;;;;;;11.90;4.83;;;16.60;99.90;;;;;;5017113;28;20025;-73
2022/10/18 00:23:45;;;;;;;12.05;5.00;;;16.60;99.90;;;;;;5015692;28;20292;-72
2022/10/18 00:26:17;;;;;;;9.80;4.75;;;16.60;99.90;;;;;;5017037;28;20068;-73
2022/10/18 00:28:44;;;;;;;11.55;4.80;;;16.60;99.90;;;;;;5017006;28;20125;-73
2022/10/18 00:31:14;;;;;;;;;;;16.50;99.90;;;;;;5017366;28;20034;-73
2022/10/18 00:33:40;;;;;;;12.40;4.55;;;16.50;99.90;;;;;;5015398;28;19968;-73
2022/10/18 00:36:06;;;;;;;9.95;4.07;;;16.60;99.90;;;;;;5031908;28;20030;-73
2022/10/18 00:38:31;;;;;;;10.88;4.43;;;16.60;99.90;;;;;;5031887;28;20022;-72
2022/10/18 00:40:57;;;;;;;12.02;4.70;;;16.50;99.90;;;;;;5015275;28;20084;-73
2022/10/18 00:43:22;;;;;;;10.80;5.07;;;16.60;99.90;;;;;;5016865;28;20041;-73
2022/10/18 00:45:48;;;;;;;13.80;4.07;;;16.50;99.90;;;;;;5031906;28;20284;-72
2022/10/18 00:48:15;;;;;;;14.13;4.10;;;16.60;99.90;;;;;;5019945;28;20037;-70
2022/10/18 00:50:42;;;;;;;10.98;4.10;;;16.60;99.90;;;;;;5036246;28;20029;-72
2022/10/18 00:53:11;;;;;;;11.88;4.30;;;16.60;99.90;;;;;;5036313;28;20025;-72
2022/10/18 00:55:38;;;;;;;10.20;4.10;;;16.70;99.90;;;;;;5051311;28;20026;-72
2022/10/18 00:58:04;;;;;;;15.93;4.82;;;16.80;99.90;;;;;;5036095;28;20481;-72
2022/10/18 01:00:30;;;;;;;;;;;16.80;99.90;;;;;;5052025;28;20032;-72
2022/10/18 01:02:57;;;;;;;9.85;3.85;;;16.70;99.90;;;;;;5034667;28;19905;-72
2022/10/18 01:05:24;;;;;;;7.70;4.45;;;16.70;99.90;;;;;;5050856;28;20037;-72
2022/10/18 01:08:08;;;;;;;9.55;3.95;;;16.70;99.90;;;;;;5034629;28;20032;-73
2022/10/18 01:10:58;;;;;;;7.93;3.60;;;16.80;99.90;;;;;;5051293;28;20022;-72
2022/10/18 01:13:33;;;;;;;12.07;3.53;;;16.70;99.90;;;;;;5036199;28;20060;-73
2022/10/18 01:16:10;;;;;;;10.88;3.95;;;16.70;99.90;;;;;;5051517;28;20029;-73
2022/10/18 01:18:59;;;;;;;10.93;4.10;;;16.60;99.90;;;;;;5044295;28;20120;-73
2022/10/18 01:21:39;;;;;;;15.13;4.50;;;16.50;99.90;;;;;;5014874;28;20025;-71
2022/10/18 01:24:16;;;;;;;10.75;4.15;;;16.60;99.90;;;;;;5016408;28;20128;-74
2022/10/18 01:27:03;;;;;;;12.52;4.22;;;16.60;99.90;;;;;;5016064;28;20030;-73
2022/10/18 01:29:58;;;;;;;8.13;4.00;;;16.70;99.90;;;;;;5015797;28;20093;-73
2022/10/18 01:32:28;;;;;;;5.70;3.80;;;16.70;99.90;;;;;;5016525;28;20030;-73
2022/10/18 01:35:08;;;;;;;8.73;4.60;;;16.80;99.90;;;;;;5014668;28;20030;-73
2022/10/18 01:37:35;;;;;;;8.80;4.07;;;16.90;99.90;;;;;;5015850;28;20022;-72
2022/10/18 01:40:05;;;;;;;12.02;3.88;;;16.90;99.90;;;;;;5015860;28;20026;-73
2022/10/18 01:42:31;;;;;;;11.02;4.45;;;16.80;99.90;;;;;;5014474;28;20022;-73
2022/10/18 01:45:00;;;;;;;11.57;4.47;;;16.80;99.90;;;;;;5016185;28;20029;-73
2022/10/18 01:47:26;;;;;;;9.45;3.75;;;16.80;99.90;;;;;;5014767;28;20056;-74
2022/10/18 01:50:04;;;;;;;8.15;3.88;;;16.80;99.90;;;;;;5032957;28;20482;-74
2022/10/18 01:52:30;;;;;;;13.15;4.30;;;16.70;99.90;;;;;;5034642;28;20061;-73
2022/10/18 01:54:58;;;;;;;6.65;4.40;;;16.70;99.90;;;;;;5036445;28;20026;-73
2022/10/18 01:57:35;;;;;;;9.00;3.92;;;16.60;99.90;;;;;;5039037;28;20033;-72
2022/10/18 02:00:19;;;;;;;7.57;3.50;;;16.70;99.90;;;;;;5038525;28;20025;-73
2022/10/18 02:03:13;;;;;;;9.93;4.30;;;16.70;99.90;;;;;;5035609;28;20021;-73
2022/10/18 02:05:47;;;;;;;8.15;3.97;;;16.70;99.90;;;;;;5034965;28;20025;-72
2022/10/18 02:08:37;;;;;;;9.48;4.00;;;16.70;99.90;;;;;;5036044;28;20099;-73
2022/10/18 02:11:11;;;;;;;9.55;3.58;;;16.70;99.90;;;;;;5035801;28;20202;-71
2022/10/18 02:13:50;;;;;;;9.18;4.03;;;16.70;99.90;;;;;;5033723;28;20021;-72
2022/10/18 02:16:29;;;;;;;9.68;4.43;;;16.70;99.90;;;;;;5033664;28;20021;-72
2022/10/18 02:19:00;;;;;;;14.30;4.80;;;16.60;99.90;;;;;;5034275;28;20033;-73
2022/10/18 02:21:28;;;;;;;10.07;4.22;;;16.60;99.90;;;;;;5034893;28;20029;-72
2022/10/18 02:23:56;;;;;;;8.68;4.20;;;16.60;99.90;;;;;;5034631;28;20497;-72
2022/10/18 02:26:21;;;;;;;9.05;4.45;;;16.50;99.90;;;;;;5034365;28;20070;-72
2022/10/18 02:28:47;;;;;;;12.10;4.30;;;16.50;99.90;;;;;;5049859;28;20029;-73
2022/10/18 02:31:26;;;;;;;16.15;4.40;;;16.60;99.90;;;;;;5033208;28;20123;-73
2022/10/18 02:34:15;;;;;;;8.60;4.05;;;16.60;99.90;;;;;;5032874;28;20148;-72
2022/10/18 02:36:53;;;;;;;10.38;4.00;;;16.60;99.90;;;;;;5049277;28;20021;-72
2022/10/18 02:39:29;;;;;;;12.27;4.60;;;16.60;99.90;;;;;;5033269;28;20565;-72
2022/10/18 02:41:56;;;;;;;7.20;4.13;;;16.50;99.90;;;;;;5049754;28;20079;-73
2022/10/18 02:44:22;;;;;;;8.43;4.10;;;16.50;99.90;;;;;;5034506;28;20093;-73
2022/10/18 02:46:47;;;;;;;;;;;16.50;99.90;;;;;;5035453;28;20025;-72
2022/10/18 02:49:13;;;;;;;10.13;4.38;;;16.50;99.90;;;;;;5046220;28;20052;-71
2022/10/18 02:51:39;;;;;;;12.65;5.90;;;16.50;99.90;;;;;;5013600;28;20030;-73
2022/10/18 02:54:04;;;;;;;12.10;4.30;;;16.50;99.90;;;;;;5013619;28;20100;-71
2022/10/18 02:56:30;;;;;;;12.50;4.30;;;16.50;99.90;;;;;;5013350;28;20026;-71
2022/10/18 02:58:56;;;;;;;6.75;4.30;;;16.50;99.90;;;;;;5014650;28;20104;-72
2022/10/18 03:01:21;;;;;;;8.53;4.73;;;16.50;99.90;;;;;;5013358;28;20069;-72
2022/10/18 03:03:47;;;;;;;9.30;4.53;;;16.60;99.90;;;;;;5012759;28;20279;-71
2022/10/18 03:06:12;;;;;;;11.02;3.97;;;16.80;99.90;;;;;;5012854;28;20044;-72
2022/10/18 03:08:38;;;;;;;7.70;4.03;;;16.80;99.90;;;;;;5012636;28;20034;-72
2022/10/18 03:11:04;;;;;;;14.13;4.20;;;16.80;99.90;;;;;;5012641;28;20040;-73
2022/10/18 03:13:29;;;;;;;13.05;3.95;;;16.80;99.90;;;;;;5012668;28;20355;-72
2022/10/18 03:15:55;;;;;;;13.75;4.15;;;16.80;99.90;;;;;;5012823;28;20033;-73
2022/10/18 03:18:20;;;;;;;12.68;4.00;;;16.70;99.90;;;;;;5017257;28;20501;-72
2022/10/18 03:20:46;;;;;;;7.13;4.30;;;16.50;99.90;;;;;;5048728;28;20025;-73
2022/10/18 03:23:11;;;;;;;10.63;4.23;;;16.40;99.90;;;;;;5048895;28;20248;-72
2022/10/18 03:25:37;;;;;;;10.90;4.72;;;16.30;99.90;;;;;;5048857;28;20021;-72
2022/10/18 03:28:03;;;;;;;6.90;4.10;;;16.30;99.90;;;;;;5033429;28;20033;-72
2022/10/18 03:30:28;;;;;;;10.10;4.78;;;16.20;99.90;;;;;;5033313;28;20378;-72
2022/10/18 03:32:54;;;;;;;10.18;4.00;;;16.30;99.90;;;;;;5032082;28;20036;-72
2022/10/18 03:35:20;;;;;;;9.02;4.05;;;16.20;99.90;;;;;;5031943;28;20030;-72
2022/10/18 03:37:45;;;;;;;9.40;4.35;;;16.20;99.90;;;;;;5048736;28;20033;-71
2022/10/18 03:40:11;;;;;;;13.00;4.40;;;16.20;99.90;;;;;;5033427;28;20030;-72
2022/10/18 03:42:36;;;;;;;12.90;4.35;;;16.20;99.90;;;;;;5033356;28;20025;-72
2022/10/18 03:45:03;;;;;;;11.68;3.88;;;16.30;99.90;;;;;;5048637;28;20029;-72
2022/10/18 03:47:29;;;;;;;11.93;4.10;;;16.30;99.90;;;;;;5033216;28;20441;-73
2022/10/18 03:49:54;;;;;;;11.83;4.17;;;16.50;99.90;;;;;;5036138;28;20520;-72
2022/10/18 03:52:20;;;;;;;11.70;3.87;;;16.60;99.90;;;;;;5052731;28;20260;-72
2022/10/18 03:54:45;;;;;;;6.93;3.50;;;16.70;99.90;;;;;;5052800;28;20024;-73
2022/10/18 03:57:11;;;;;;;9.90;3.53;;;16.60;99.90;;;;;;5052549;28;20017;-71
2022/10/18 03:59:36;;;;;;;8.77;3.50;;;16.60;99.90;;;;;;5052446;28;20648;-73
2022/10/18 04:02:02;;;;;;;6.33;3.90;;;16.60;99.90;;;;;;5035863;28;20032;-73
2022/10/18 04:04:27;;;;;;;9.20;4.20;;;16.60;99.90;;;;;;5037156;28;20032;-72
2022/10/18 04:06:53;;;;;;;5.73;3.97;;;16.50;99.90;;;;;;5037435;28;20033;-73
2022/10/18 04:09:18;;;;;;;10.07;4.03;;;16.60;99.90;;;;;;5035780;28;20029;-73
2022/10/18 04:11:44;;;;;;;12.20;3.97;;;16.40;99.90;;;;;;5037312;28;20270;-73
2022/10/18 04:14:09;;;;;;;6.13;3.93;;;16.40;99.90;;;;;;5036369;28;20026;-73
2022/10/18 04:16:35;;;;;;;6.47;3.70;;;16.40;99.90;;;;;;5055491;28;20341;-73
2022/10/18 04:19:00;;;;;;;9.23;4.33;;;16.40;99.90;;;;;;5056819;22;20076;-73
2022/10/18 04:21:26;;;;;;;10.98;4.03;;;16.30;99.90;;;;;;5034338;28;20024;-74
2022/10/18 04:23:51;;;;;;;5.60;4.20;;;16.40;99.90;;;;;;5019255;28;20486;-74
2022/10/18 04:26:17;;;;;;;8.13;4.60;;;16.40;99.90;;;;;;5018910;28;20756;-74
2022/10/18 04:28:43;;;;;;;13.63;5.00;;;16.40;99.90;;;;;;5018938;28;20030;-74
2022/10/18 04:31:09;;;;;;;;;;;16.50;99.90;;;;;;5037139;28;20068;-73
2022/10/18 04:33:35;;;;;;;19.08;4.43;;;16.40;99.90;;;;;;5037406;28;19905;-74
2022/10/18 04:36:01;;;;;;;10.73;4.50;;;16.40;99.90;;;;;;5036493;28;20025;-73
2022/10/18 04:38:27;;;;;;;10.65;4.00;;;16.30;99.90;;;;;;5018852;28;20028;-74
2022/10/18 04:40:52;;;;;;;12.88;5.35;;;16.20;99.90;;;;;;5036985;28;20021;-71
2022/10/18 04:43:18;;;;;;;19.00;5.70;;;16.20;99.90;;;;;;5031688;28;20033;-70
2022/10/18 04:45:44;;;;;;;14.25;5.05;;;16.30;99.90;;;;;;5033580;28;20428;-70
2022/10/18 04:48:10;;;;;;;12.95;5.40;;;16.40;99.90;;;;;;5032805;28;20025;-72
2022/10/18 04:50:36;;;;;;;20.05;4.97;;;16.40;99.90;;;;;;5033680;28;20076;-71
2022/10/18 04:53:02;;;;;;;10.13;4.70;;;16.40;99.90;;;;;;5016177;28;20035;-71
2022/10/18 04:55:28;;;;;;;9.98;4.50;;;16.40;99.90;;;;;;5016153;28;20445;-71
2022/10/18 04:57:53;;;;;;;10.02;4.22;;;16.40;99.90;;;;;;5034546;28;20026;-71
2022/10/18 05:00:19;;;;;;;13.67;5.13;;;16.50;99.90;;;;;;5035373;28;20029;-71
2022/10/18 05:02:44;;;;;;;12.75;5.43;;;16.40;99.90;;;;;;5036410;28;20822;-69
2022/10/18 05:05:10;;;;;;;7.30;4.70;;;16.40;99.90;;;;;;5036363;28;20025;-72
2022/10/18 05:07:36;;;;;;;14.37;4.90;;;16.40;99.90;;;;;;5018064;28;20625;-71
2022/10/18 05:10:02;;;;;;;8.02;5.07;;;16.40;99.90;;;;;;5035670;28;20165;-71
2022/10/18 05:12:28;;;;;;;11.68;4.63;;;16.50;99.90;;;;;;5035732;28;20106;-72
2022/10/18 05:14:53;;;;;;;9.97;5.27;;;16.40;99.90;;;;;;5035903;28;21714;-71
2022/10/18 05:17:19;;;;;;;8.43;4.80;;;16.40;99.90;;;;;;5018484;28;20371;-71
2022/10/18 05:19:44;;;;;;;11.02;4.80;;;16.40;99.90;;;;;;5037597;28;20389;-71
2022/10/18 05:22:10;;;;;;;13.20;5.22;;;16.30;99.90;;;;;;5018808;28;20041;-71
2022/10/18 05:24:35;;;;;;;10.73;5.17;;;16.20;99.90;;;;;;5035860;28;20536;-71
2022/10/18 05:27:01;;;;;;;11.90;5.13;;;16.10;99.90;;;;;;5017805;28;20458;-71
2022/10/18 05:29:26;;;;;;;10.53;4.63;;;16.10;99.90;;;;;;5017060;28;20032;-71
2022/10/18 05:31:52;;;;;;;9.57;4.82;;;16.10;99.90;;;;;;5034335;28;20269;-71
2022/10/18 05:34:19;;;;;;;9.53;4.93;;;16.20;99.90;;;;;;5017413;28;20026;-71
2022/10/18 05:36:48;;;;;;;6.93;5.30;;;16.20;99.90;;;;;;5017233;28;20097;-71
2022/10/18 05:39:14;;;;;;;10.68;4.63;;;16.30;99.90;;;;;;5017530;28;20025;-71
2022/10/18 05:41:40;;;;;;;12.65;5.03;;;16.30;99.90;;;;;;5036002;28;20091;-71
2022/10/18 05:44:05;;;;;;;8.82;5.00;;;16.30;99.90;;;;;;5018798;28;20151;-72
2022/10/18 05:46:31;;;;;;;8.18;5.05;;;16.40;99.90;;;;;;5035376;28;20477;-71
2022/10/18 05:48:57;;;;;;;10.57;4.40;;;16.40;99.90;;;;;;5017160;28;20034;-71
2022/10/18 05:51:23;;;;;;;13.30;4.75;;;16.50;99.90;;;;;;5034768;28;20103;-71
2022/10/18 05:53:48;;;;;;;14.05;5.03;;;16.40;99.90;;;;;;5034690;28;20041;-71
2022/10/18 05:56:14;;;;;;;11.82;5.20;;;16.40;99.90;;;;;;5034674;28;20033;-71
2022/10/18 05:58:41;;;;;;;7.88;4.50;;;16.50;99.90;;;;;;5034514;28;20033;-70
2022/10/18 06:01:09;;;;;;;44.45;21.00;;;16.50;99.90;;;;;;5016838;28;20053;-71
2022/10/18 06:03:34;;;;;;;12.50;4.85;;;16.60;99.90;;;;;;5034492;28;20415;-71
2022/10/18 06:06:00;;;;;;;11.52;4.68;;;16.60;99.90;;;;;;5034188;28;20072;-71
2022/10/18 06:08:26;;;;;;;10.73;5.30;;;16.60;99.90;;;;;;5016683;28;20033;-70
2022/10/18 06:10:52;;;;;;;10.85;5.40;;;16.60;99.90;;;;;;5034640;28;20030;-71
2022/10/18 06:13:17;;;;;;;12.55;4.65;;;16.50;99.90;;;;;;5015776;28;20370;-71
2022/10/18 06:15:43;;;;;;;10.27;4.63;;;16.60;99.90;;;;;;5016479;28;20036;-71
2022/10/18 06:18:08;;;;;;;12.80;5.03;;;16.80;99.90;;;;;;5016616;28;20040;-71
2022/10/18 06:20:34;;;;;;;8.97;5.17;;;16.80;99.90;;;;;;5016094;28;20033;-71
2022/10/18 06:23:00;;;;;;;14.38;4.82;;;16.70;99.90;;;;;;5017115;28;20272;-71
2022/10/18 06:25:25;;;;;;;12.27;4.93;;;16.70;99.90;;;;;;5017020;28;20390;-72
2022/10/18 06:27:51;;;;;;;12.07;6.07;;;16.90;99.90;;;;;;5016769;28;20256;-71
2022/10/18 06:30:16;;;;;;;11.48;5.75;;;17.10;99.90;;;;;;5034049;28;20030;-71
2022/10/18 06:32:42;;;;;;;12.97;5.70;;;17.10;99.90;;;;;;5034108;28;20030;-71
2022/10/18 06:35:08;;;;;;;14.43;5.80;;;17.10;99.90;;;;;;5033652;28;20260;-71
2022/10/18 06:37:34;;;;;;;10.25;5.18;;;16.90;99.90;;;;;;5033948;28;20033;-71
2022/10/18 06:39:59;;;;;;;11.82;5.82;;;17.00;99.90;;;;;;5016272;28;20021;-71
2022/10/18 06:42:25;;;;;;;15.25;5.80;;;16.90;99.90;;;;;;5033866;28;20038;-71
2022/10/18 06:44:50;;;;;;;12.93;5.50;;;17.00;99.90;;;;;;5034200;28;20135;-71
2022/10/18 06:47:16;;;;;;;14.10;6.30;;;17.10;99.90;;;;;;5016189;28;20029;-71
2022/10/18 06:49:41;;;;;;;9.80;5.53;;;17.00;99.90;;;;;;5034105;28;20271;-71
2022/10/18 06:52:07;;;;;;;8.80;6.07;;;17.00;99.90;;;;;;5034028;28;20033;-71
2022/10/18 06:54:33;;;;;;;7.97;6.05;;;16.80;99.90;;;;;;5017072;28;20312;-71
2022/10/18 06:57:01;;;;;;;14.55;6.38;;;16.70;99.90;;;;;;5016190;28;20044;-71
2022/10/18 06:59:27;;;;;;;10.63;6.30;;;16.60;99.90;;;;;;5034131;28;20390;-70
2022/10/18 07:01:52;;;;;;;13.93;5.82;;;16.60;99.90;;;;;;5033640;28;20058;-70
2022/10/18 07:04:18;;;;;;;12.70;5.87;;;16.80;99.90;;;;;;5015615;28;20026;-71
2022/10/18 07:06:43;;;;;;;10.80;6.20;;;16.90;99.90;;;;;;5015517;28;20437;-71
2022/10/18 07:09:09;;;;;;;14.10;5.97;;;17.00;99.90;;;;;;5033743;28;20341;-71
2022/10/18 07:11:34;;;;;;;9.40;6.13;;;16.90;99.90;;;;;;5033412;28;20473;-70
2022/10/18 07:14:03;;;;;;;10.40;5.47;;;17.10;99.90;;;;;;5033453;28;20044;-71
2022/10/18 07:16:29;;;;;;;16.52;5.88;;;17.00;99.90;;;;;;5033561;28;20426;-71
2022/10/18 07:18:54;;;;;;;11.50;5.25;;;16.90;99.90;;;;;;5033113;28;20026;-71
2022/10/18 07:21:22;;;;;;;19.03;5.70;;;16.90;99.90;;;;;;5033059;28;20036;-72
2022/10/18 07:23:48;;;;;;;11.55;5.45;;;16.80;99.90;;;;;;5033255;28;20264;-71
2022/10/18 07:26:18;;;;;;;;;;;16.70;99.90;;;;;;5016049;28;20026;-71
2022/10/18 07:28:46;;;;;;;12.18;5.55;;;16.80;99.90;;;;;;5033315;28;19909;-72
2022/10/18 07:31:12;;;;;;;16.73;5.53;;;16.90;99.90;;;;;;5033453;28;20025;-72
2022/10/18 07:33:38;;;;;;;11.88;5.47;;;16.80;99.90;;;;;;5015629;28;20032;-71
2022/10/18 07:36:06;;;;;;;16.38;6.55;;;16.70;99.90;;;;;;5015090;28;20033;-71
2022/10/18 07:38:33;;;;;;;13.80;5.57;;;16.90;99.90;;;;;;5015316;28;20347;-72
2022/10/18 07:41:00;;;;;;;9.02;4.85;;;16.90;99.90;;;;;;5033090;28;20374;-71
2022/10/18 07:43:26;;;;;;;13.52;5.70;;;17.10;99.90;;;;;;5033470;28;20044;-72
2022/10/18 07:45:57;;;;;;;22.83;6.10;;;17.10;99.90;;;;;;5015863;28;20038;-71
2022/10/18 07:48:23;;;;;;;12.20;5.95;;;17.30;99.90;;;;;;5015316;28;20052;-73
2022/10/18 07:50:49;;;;;;;16.85;6.55;;;17.20;99.90;;;;;;5033697;28;20029;-73
2022/10/18 07:53:15;;;;;;;11.77;5.70;;;17.30;99.90;;;;;;5033604;28;20057;-73
2022/10/18 07:55:40;;;;;;;17.95;7.35;;;17.20;99.90;;;;;;5016285;28;20033;-74
2022/10/18 07:58:06;;;;;;;15.75;6.10;;;17.10;99.90;;;;;;5016040;28;20021;-74
2022/10/18 08:00:32;;;;;;;13.07;6.07;;;17.00;99.90;;;;;;5033708;28;20031;-73
2022/10/18 08:02:58;;;;;;;14.80;8.68;;;16.90;99.90;;;;;;5015703;28;20326;-72
2022/10/18 08:05:25;;;;;;;;;;;16.90;99.90;;;;;;5033425;28;20033;-74
2022/10/18 08:07:51;;;;;;;13.88;6.55;;;16.80;99.90;;;;;;5033117;28;19943;-74
2022/10/18 08:10:16;;;;;;;11.70;6.30;;;16.80;99.90;;;;;;5015353;28;20033;-73
2022/10/18 08:12:42;;;;;;;14.77;5.78;;;16.90;99.90;;;;;;5015125;28;20028;-73
2022/10/18 08:15:08;;;;;;;12.50;6.63;;;17.10;99.90;;;;;;5015224;28;20037;-73
2022/10/18 08:17:33;;;;;;;12.45;6.18;;;17.10;99.90;;;;;;5015181;28;20029;-73
2022/10/18 08:19:59;;;;;;;11.23;5.88;;;17.00;99.90;;;;;;5014929;28;20046;-74
2022/10/18 08:22:24;;;;;;;9.85;6.00;;;17.20;99.90;;;;;;5014954;28;20021;-74
2022/10/18 08:24:50;;;;;;;10.00;6.05;;;17.50;99.90;;;;;;5015135;28;20120;-74
2022/10/18 08:27:16;;;;;;;12.37;5.57;;;17.80;99.90;;;;;;5015092;28;20029;-73
2022/10/18 08:29:41;;;;;;;10.57;5.20;;;18.10;99.90;;;;;;5015336;28;20610;-73
2022/10/18 08:32:07;;;;;;;12.40;5.80;;;18.30;99.90;;;;;;5032910;28;20038;-72
2022/10/18 08:34:33;;;;;;;14.27;5.17;;;18.30;99.90;;;;;;5015183;28;20656;-73
2022/10/18 08:36:59;;;;;;;10.27;5.68;;;18.20;99.90;;;;;;5018169;28;20022;-72
2022/10/18 08:39:25;;;;;;;8.07;5.13;;;18.40;99.90;;;;;;5019271;28;20017;-72
2022/10/18 08:41:59;;;;;;;12.05;5.47;;;18.70;99.90;;;;;;5038059;28;20113;-73
2022/10/18 08:44:29;;;;;;;12.57;5.63;;;18.90;99.90;;;;;;5039011;28;20017;-72
2022/10/18 08:47:01;;;;;;;9.95;5.10;;;19.00;99.90;;;;;;5021939;28;20022;-73
2022/10/18 08:49:42;;;;;;;13.27;5.18;;;19.00;99.90;;;;;;5021834;28;20064;-73
2022/10/18 08:52:19;;;;;;;7.65;4.70;;;19.00;99.90;;;;;;5021432;28;20031;-73
2022/10/18 08:55:02;;;;;;;8.88;4.65;;;19.10;99.90;;;;;;5039381;28;20022;-73
2022/10/18 08:57:29;;;;;;;7.47;4.68;;;19.30;99.90;;;;;;5020362;28;20021;-72
2022/10/18 08:59:54;;;;;;;9.70;4.97;;;19.60;99.90;;;;;;5036065;28;20400;-72
2022/10/18 09:03:04;;;;;;;11.38;3.88;;;19.90;99.90;;;;;;5018544;28;20029;-72
2022/10/18 09:05:47;;;;;;;8.98;3.90;;;19.60;99.90;;;;;;5036156;28;20385;-72
2022/10/18 09:08:39;;;;;;;8.52;4.18;;;19.60;99.90;;;;;;5036290;28;20083;-72
2022/10/18 09:11:29;;;;;;;6.95;3.95;;;19.60;99.90;;;;;;5035990;28;20025;-73
2022/10/18 09:14:19;;;;;;;8.73;3.80;;;19.50;99.90;;;;;;5018392;28;20072;-72
2022/10/18 09:16:55;;;;;;;7.60;4.32;;;19.50;99.90;;;;;;5035904;28;20101;-72
2022/10/18 09:19:54;;;;;;;9.50;4.22;;;19.40;99.90;;;;;;5034980;28;20401;-72
2022/10/18 09:22:39;;;;;;;11.20;4.55;;;19.40;99.90;;;;;;5009952;28;20170;-72
2022/10/18 09:25:10;;;;;;;11.77;4.03;;;19.30;99.90;;;;;;5036710;28;20116;-72
2022/10/18 09:27:51;;;;;;;6.72;3.67;;;19.30;99.90;;;;;;5036137;28;20025;-72
2022/10/18 09:30:35;;;;;;;7.85;3.70;;;19.30;99.90;;;;;;5035660;28;20060;-70
2022/10/18 09:33:39;;;;;;;11.13;4.72;;;19.30;99.90;;;;;;5035826;28;20021;-70
2022/10/18 09:36:08;;;;;;;12.68;4.53;;;19.30;99.90;;;;;;5017126;28;20041;-70
2022/10/18 09:38:42;;;;;;;10.27;4.40;;;19.20;99.90;;;;;;5035417;28;20053;-71
2022/10/18 09:41:16;;;;;;;9.70;4.15;;;19.20;99.90;;;;;;5017611;28;20443;-70
2022/10/18 09:43:53;;;;;;;10.95;4.53;;;19.50;99.90;;;;;;5017941;28;20113;-70
2022/10/18 09:46:20;;;;;;;;;;;19.60;99.90;;;;;;5035636;28;20029;-70
2022/10/18 09:48:50;;;;;;;8.00;4.63;;;19.80;99.90;;;;;;5034980;28;19906;-71
2022/10/18 09:51:24;;;;;;;12.15;4.82;;;19.90;99.90;;;;;;5034904;28;20063;-70
2022/10/18 09:54:04;;;;;;;9.30;4.22;;;20.00;99.90;;;;;;5017335;28;20061;-71
2022/10/18 09:56:38;;;;;;;12.07;5.13;;;20.00;99.90;;;;;;5035394;28;20040;-71
2022/10/18 09:59:03;;;;;;;8.18;3.70;;;21.50;99.90;;;;;;5034933;28;20478;-71
2022/10/18 10:01:32;;;;;;;9.73;3.85;;;24.10;99.90;;;;;;5035316;28;20025;-70
2022/10/18 10:03:57;;;;;;;9.20;3.40;;;26.40;99.90;;;;;;5017048;28;20049;-72
2022/10/18 10:06:27;;;;;;;;;;;28.10;99.90;;;;;;5034843;28;20493;-71
2022/10/18 10:09:14;;;;;;;7.65;3.40;;;29.80;99.20;;;;;;5035043;28;20040;-72
2022/10/18 10:11:46;;;;;;;6.22;3.08;;;30.90;97.30;;;;;;5034528;28;20490;-72
2022/10/18 10:14:41;;;;;;;11.35;3.15;;;31.80;95.10;;;;;;5016619;28;20030;-71
2022/10/18 10:17:28;;;;;;;5.00;2.83;;;32.10;94.20;;;;;;5034367;28;20470;-72
2022/10/18 10:20:02;;;;;;;4.78;2.63;;;32.80;92.70;;;;;;5034823;28;20033;-73
2022/10/18 10:22:36;;;;;;;7.05;2.70;;;32.90;91.80;;;;;;5034698;28;20026;-73
2022/10/18 10:25:03;;;;;;;6.95;3.10;;;30.70;92.90;;;;;;5035127;28;20021;-72
2022/10/18 10:27:42;;;;;;;7.68;3.08;;;29.60;94.80;;;;;;5017025;28;20577;-72
2022/10/18 10:30:36;;;;;;;7.90;3.05;;;29.40;95.50;;;;;;5034390;28;20029;-72
2022/10/18 10:33:02;;;;;;;6.32;2.92;;;29.90;95.20;;;;;;5032120;28;20044;-72
2022/10/18 10:35:30;;;;;;;7.32;2.92;;;30.70;94.40;;;;;;5034723;28;20037;-72
2022/10/18 10:37:56;;;;;;;5.25;2.95;;;31.60;93.80;;;;;;5016506;28;20529;-72
2022/10/18 10:40:27;;;;;;;6.25;2.55;;;32.60;92.30;;;;;;5034412;28;20105;-72
2022/10/18 10:43:20;;;;;;;5.95;3.70;;;33.30;91.40;;;;;;5034377;28;20045;-72
2022/10/18 10:46:09;;;;;;;8.52;2.83;;;32.70;91.10;;;;;;5018689;28;20044;-73
2022/10/18 10:48:56;;;;;;;8.45;3.10;;;32.70;91.30;;;;;;5033933;28;20028;-73
2022/10/18 10:51:35;;;;;;;8.02;3.20;;;31.90;91.70;;;;;;5033910;28;20057;-72
2022/10/18 10:54:15;;;;;;;10.45;3.88;;;30.50;92.60;;;;;;5034198;28;20017;-72
2022/10/18 10:56:55;;;;;;;6.25;2.90;;;28.80;95.10;;;;;;5016364;28;20136;-72
2022/10/18 10:59:24;;;;;;;7.95;2.80;;;27.20;97.20;;;;;;5033524;28;20032;-72
2022/10/18 11:02:14;;;;;;;9.13;3.03;;;26.10;98.90;;;;;;5016272;28;20029;-72
2022/10/18 11:04:41;;;;;;;6.85;2.65;;;25.40;99.90;;;;;;5016169;28;20108;-73
2022/10/18 11:07:40;;;;;;;3.03;2.40;;;24.70;99.90;;;;;;5015933;28;20043;-73
2022/10/18 11:10:14;;;;;;;4.45;2.60;;;24.20;99.90;;;;;;5033649;28;20021;-72
2022/10/18 11:13:11;;;;;;;6.00;3.00;;;24.10;99.90;;;;;;5033873;28;20036;-72
2022/10/18 11:15:51;;;;;;;4.10;2.80;;;24.10;99.90;;;;;;5016011;28;20184;-71
2022/10/18 11:18:25;;;;;;;8.90;3.38;;;24.00;99.90;;;;;;5016442;28;20026;-71
2022/10/18 11:21:10;;;;;;;4.95;2.60;;;24.00;99.90;;;;;;5015790;28;20029;-71
2022/10/18 11:23:40;;;;;;;6.43;3.20;;;23.60;99.90;;;;;;5033828;28;20029;-71
2022/10/18 11:26:12;;;;;;;5.53;3.10;;;23.10;99.90;;;;;;5016074;28;20032;-70
2022/10/18 11:28:57;;;;;;;6.53;2.97;;;22.70;99.90;;;;;;5033641;28;20022;-70
2022/10/18 11:31:47;;;;;;;7.97;2.90;;;22.20;99.90;;;;;;5015680;28;20124;-71
2022/10/18 11:34:20;;;;;;;9.80;3.25;;;22.00;99.90;;;;;;5033371;28;20536;-70
2022/10/18 11:36:59;;;;;;;4.70;2.80;;;21.70;99.90;;;;;;5033114;28;20462;-72
2022/10/18 11:40:05;;;;;;;5.47;3.22;;;21.60;99.90;;;;;;5033631;28;20355;-72
2022/10/18 11:43:02;;;;;;;8.45;4.72;;;21.50;99.90;;;;;;5034994;28;20032;-72
2022/10/18 11:45:57;;;;;;;7.63;4.20;;;21.60;99.90;;;;;;5015990;28;20018;-71
2022/10/18 11:48:31;;;;;;;6.68;3.50;;;21.70;99.90;;;;;;5015625;28;20033;-70
2022/10/18 11:51:04;;;;;;;5.63;3.03;;;21.70;99.90;;;;;;5033163;28;20029;-71
2022/10/18 11:53:51;;;;;;;7.78;3.10;;;21.90;99.90;;;;;;5015904;28;20021;-68
2022/10/18 11:56:23;;;;;;;9.52;6.13;;;22.00;99.90;;;;;;5016107;28;20025;-68
2022/10/18 11:58:58;;;;;;;6.97;3.53;;;22.20;99.90;;;;;;5033109;28;20041;-68
2022/10/18 12:01:42;;;;;;;7.25;3.03;;;22.30;99.90;;;;;;5033267;28;20053;-68
2022/10/18 12:04:33;;;;;;;5.70;2.70;;;22.50;99.90;;;;;;5034073;28;20024;-70
2022/10/18 12:07:02;;;;;;;4.53;2.78;;;22.70;99.90;;;;;;5040561;28;20116;-74
2022/10/18 12:09:33;;;;;;;5.72;4.20;;;23.00;99.90;;;;;;5020743;28;20021;-74
2022/10/18 12:12:11;;;;;;;7.93;4.00;;;23.10;99.90;;;;;;5024712;28;20041;-73
2022/10/18 12:14:53;;;;;;;6.80;2.45;;;23.10;99.90;;;;;;5026966;28;20168;-76
2022/10/18 12:17:29;;;;;;;7.40;2.40;;;23.00;99.90;;;;;;5022838;28;20152;-77
2022/10/18 12:19:58;;;;;;;4.80;2.42;;;22.80;99.90;;;;;;5022108;28;20040;-77
2022/10/18 12:22:44;;;;;;;3.53;1.77;;;22.60;99.90;;;;;;5039185;28;20037;-77
2022/10/18 12:25:16;;;;;;;3.27;2.07;;;22.40;99.90;;;;;;5039124;28;20029;-77
2022/10/18 12:27:56;;;;;;;3.58;1.70;;;22.20;99.90;;;;;;5019958;28;20405;-75
2022/10/18 12:30:38;;;;;;;2.55;1.33;;;22.40;99.90;;;;;;5037331;28;20109;-76
2022/10/18 12:33:11;;;;;;;2.97;1.70;;;22.40;99.90;;;;;;5037824;28;20029;-76
2022/10/18 12:35:51;;;;;;;5.55;2.17;;;22.40;99.90;;;;;;5038160;28;20028;-74
2022/10/18 12:38:24;;;;;;;7.72;1.90;;;22.30;99.90;;;;;;5037373;28;20400;-76
2022/10/18 12:40:52;;;;;;;3.42;1.70;;;22.30;99.90;;;;;;5019298;28;20029;-73
2022/10/18 12:43:23;;;;;;;5.93;2.20;;;22.20;99.90;;;;;;5019052;28;20022;-78
2022/10/18 12:45:57;;;;;;;3.40;1.92;;;22.10;99.90;;;;;;5036630;28;20053;-71
2022/10/18 12:48:38;;;;;;;3.33;1.92;;;22.10;99.90;;;;;;5018396;28;20393;-72
2022/10/18 12:51:18;;;;;;;3.63;2.22;;;22.20;99.90;;;;;;5036053;28;20032;-71
2022/10/18 12:53:59;;;;;;;3.00;1.40;;;22.40;99.90;;;;;;5036231;28;20119;-74
2022/10/18 12:56:28;;;;;;;6.38;1.85;;;22.30;99.90;;;;;;5036809;28;20033;-76
2022/10/18 12:59:15;;;;;;;3.95;2.45;;;22.40;99.90;;;;;;5020379;28;20022;-74
2022/10/18 13:01:50;;;;;;;3.97;2.30;;;22.50;99.90;;;;;;5020287;28;20104;-76
2022/10/18 13:04:28;;;;;;;3.03;2.58;;;22.60;99.90;;;;;;5037188;28;20049;-74